createdAt,value
2023-02-15T00:00:07.096Z,37.17
2023-02-15T00:02:34.272Z,44.97
2023-02-15T00:05:01.484Z,42.73
2023-02-15T00:07:28.548Z,38.63
2023-02-15T00:09:55.647Z,41.23
2023-02-15T00:12:22.801Z,45.63
2023-02-15T00:14:49.879Z,41.13
2023-02-15T00:17:17.277Z,37.53
2023-02-15T00:19:44.321Z,44.50
2023-02-15T00:22:11.386Z,42.97
2023-02-15T00:24:38.443Z,40.87
2023-02-15T00:27:05.528Z,38.03
2023-02-15T00:29:32.776Z,41.93
2023-02-15T00:31:59.845Z,44.17
2023-02-15T00:34:29.894Z,45.10
2023-02-15T00:36:56.971Z,44.20
2023-02-15T00:39:24.970Z,45.40
2023-02-15T00:41:51.990Z,47.93
2023-02-15T00:44:19.166Z,44.40
2023-02-15T00:46:46.334Z,45.07
2023-02-15T00:49:13.405Z,40.37
2023-02-15T00:51:40.656Z,41.33
2023-02-15T00:54:08.168Z,43.47
2023-02-15T00:56:35.380Z,38.73
2023-02-15T00:59:02.687Z,44.07
2023-02-15T01:01:29.840Z,42.73
2023-02-15T01:03:57.148Z,45.67
2023-02-15T01:06:24.216Z,49.00
2023-02-15T01:08:51.281Z,46.33
2023-02-15T01:11:25.413Z,40.47
2023-02-15T01:13:56.253Z,41.57
2023-02-15T01:16:26.577Z,42.37
2023-02-15T01:18:56.184Z,44.17
2023-02-15T01:21:26.256Z,41.10
2023-02-15T01:23:53.554Z,38.00
2023-02-15T01:26:20.634Z,41.43
2023-02-15T01:28:47.752Z,38.80
2023-02-15T01:31:22.065Z,43.00
2023-02-15T01:33:50.028Z,46.07
2023-02-15T01:36:18.453Z,40.57
2023-02-15T01:38:46.204Z,43.50
2023-02-15T01:41:25.646Z,42.90
2023-02-15T01:44:04.318Z,42.70
2023-02-15T01:46:50.695Z,46.03
2023-02-15T01:49:25.212Z,41.20
2023-02-15T01:51:53.928Z,41.83
2023-02-15T01:54:30.587Z,41.93
2023-02-15T01:57:04.621Z,45.60
2023-02-15T01:59:34.971Z,44.00
2023-02-15T02:02:04.513Z,41.30
2023-02-15T02:04:46.300Z,42.10
2023-02-15T02:07:17.194Z,42.37
2023-02-15T02:09:45.733Z,43.37
2023-02-15T02:12:13.439Z,46.80
2023-02-15T02:14:41.668Z,46.17
2023-02-15T02:17:29.326Z,43.57
2023-02-15T02:20:49.019Z,45.30
2023-02-15T02:24:10.234Z,48.20
2023-02-15T02:26:49.229Z,49.20
2023-02-15T02:29:24.757Z,46.13
2023-02-15T02:32:45.612Z,47.07
2023-02-15T02:35:34.419Z,49.00
2023-02-15T02:38:36.740Z,48.90
2023-02-15T02:41:33.487Z,43.27
2023-02-15T02:44:14.009Z,47.40
2023-02-15T02:46:55.460Z,53.40
2023-02-15T02:49:36.240Z,51.93
2023-02-15T02:52:08.157Z,53.10
2023-02-15T02:54:37.243Z,44.37
2023-02-15T02:57:10.296Z,52.43
2023-02-15T02:59:46.407Z,49.87
2023-02-15T03:02:22.450Z,52.70
2023-02-15T03:04:59.669Z,48.60
2023-02-15T03:07:29.827Z,46.83
2023-02-15T03:10:01.301Z,48.00
2023-02-15T03:12:40.322Z,47.93
2023-02-15T03:15:16.920Z,44.77
2023-02-15T03:17:53.770Z,47.07
2023-02-15T03:20:32.405Z,49.30
2023-02-15T03:23:11.745Z,50.40
2023-02-15T03:25:44.214Z,47.67
2023-02-15T03:28:26.529Z,46.57
2023-02-15T03:30:59.065Z,47.40
2023-02-15T03:33:28.914Z,44.90
2023-02-15T03:36:21.544Z,53.40
2023-02-15T03:39:22.381Z,53.63
2023-02-15T03:42:18.464Z,45.57
2023-02-15T03:45:05.065Z,51.37
2023-02-15T03:47:41.737Z,48.90
2023-02-15T03:50:34.872Z,48.90
2023-02-15T03:53:06.328Z,47.17
2023-02-15T03:55:35.905Z,46.73
2023-02-15T03:58:22.357Z,47.73
2023-02-15T04:01:19.656Z,49.97
2023-02-15T04:03:58.353Z,51.73
2023-02-15T04:06:25.387Z,46.60
2023-02-15T04:09:21.675Z,47.53
2023-02-15T04:11:48.808Z,57.80
2023-02-15T04:14:34.123Z,43.90
2023-02-15T04:17:01.094Z,47.40
2023-02-15T04:19:46.880Z,46.20
2023-02-15T04:22:32.637Z,46.57
2023-02-15T04:25:15.084Z,49.23
2023-02-15T04:27:51.119Z,53.43
2023-02-15T04:30:22.040Z,46.90
2023-02-15T04:32:49.397Z,42.23
2023-02-15T04:35:17.061Z,42.03
2023-02-15T04:37:45.123Z,47.17
2023-02-15T04:40:15.995Z,45.03
2023-02-15T04:42:44.010Z,48.13
2023-02-15T04:45:11.124Z,43.40
2023-02-15T04:47:38.154Z,43.17
2023-02-15T04:50:06.101Z,46.73
2023-02-15T04:52:33.192Z,44.83
2023-02-15T04:55:00.207Z,47.23
2023-02-15T04:57:27.352Z,51.67
2023-02-15T04:59:54.431Z,44.70
2023-02-15T05:02:21.483Z,47.77
2023-02-15T05:04:48.541Z,48.50
2023-02-15T05:07:15.844Z,44.87
2023-02-15T05:09:42.884Z,40.63
2023-02-15T05:12:09.952Z,43.20
2023-02-15T05:14:37.048Z,38.07
2023-02-15T05:17:06.250Z,44.40
2023-02-15T05:19:33.439Z,42.17
2023-02-15T05:22:00.555Z,42.60
2023-02-15T05:24:46.484Z,38.23
2023-02-15T05:27:32.734Z,43.87
2023-02-15T05:30:00.013Z,33.77
2023-02-15T05:32:27.404Z,39.30
2023-02-15T05:34:54.607Z,36.47
2023-02-15T05:37:21.696Z,35.33
2023-02-15T05:39:48.760Z,37.73
2023-02-15T05:42:15.812Z,35.23
2023-02-15T05:44:42.880Z,38.57
2023-02-15T05:47:09.918Z,34.57
2023-02-15T05:49:37.258Z,33.47
2023-02-15T05:52:04.959Z,37.03
2023-02-15T05:54:32.203Z,33.53
2023-02-15T05:56:59.574Z,33.77
2023-02-15T05:59:26.703Z,35.33
2023-02-15T06:01:53.721Z,36.23
2023-02-15T06:04:20.896Z,31.87
2023-02-15T06:06:47.970Z,32.07
2023-02-15T06:09:15.391Z,33.70
2023-02-15T06:11:42.591Z,33.37
2023-02-15T06:14:09.619Z,33.27
2023-02-15T06:16:36.880Z,33.57
2023-02-15T06:19:04.823Z,29.03
2023-02-15T06:21:32.295Z,29.60
2023-02-15T06:23:59.510Z,33.50
2023-02-15T06:26:26.714Z,31.60
2023-02-15T06:28:53.904Z,36.97
2023-02-15T06:31:21.160Z,33.07
2023-02-15T06:33:48.280Z,30.77
2023-02-15T06:36:15.322Z,30.17
2023-02-15T06:38:42.524Z,33.60
2023-02-15T06:41:09.655Z,31.03
2023-02-15T06:43:36.651Z,31.80
2023-02-15T06:46:04.073Z,35.77
2023-02-15T06:48:31.494Z,33.33
2023-02-15T06:50:58.653Z,30.53
2023-02-15T06:53:25.780Z,29.73
2023-02-15T06:55:52.857Z,32.07
2023-02-15T06:58:19.913Z,31.67
2023-02-15T07:00:47.019Z,31.83
2023-02-15T07:03:15.862Z,29.73
2023-02-15T07:05:43.006Z,30.97
2023-02-15T07:08:10.254Z,32.70
2023-02-15T07:10:37.341Z,37.67
2023-02-15T07:13:04.418Z,33.40
2023-02-15T07:15:31.615Z,32.23
2023-02-15T07:18:00.127Z,31.37
2023-02-15T07:20:27.720Z,28.90
2023-02-15T07:22:54.750Z,27.33
2023-02-15T07:25:21.779Z,30.20
2023-02-15T07:27:48.924Z,33.23
2023-02-15T07:30:18.401Z,30.93
2023-02-15T07:33:05.784Z,33.47
2023-02-15T07:35:33.963Z,31.47
2023-02-15T07:38:02.197Z,32.90
2023-02-15T07:40:29.278Z,34.60
2023-02-15T07:43:00.215Z,32.00
2023-02-15T07:45:27.982Z,29.53
2023-02-15T07:47:55.097Z,32.67
2023-02-15T07:50:22.175Z,30.30
2023-02-15T07:52:49.197Z,35.03
2023-02-15T07:55:16.399Z,31.87
2023-02-15T07:57:49.128Z,31.90
2023-02-15T08:00:19.184Z,29.07
2023-02-15T08:03:11.190Z,33.47
2023-02-15T08:05:39.184Z,34.10
2023-02-15T08:08:06.675Z,32.43
2023-02-15T08:10:52.550Z,28.97
2023-02-15T08:13:19.573Z,29.97
2023-02-15T08:15:52.729Z,33.53
2023-02-15T08:18:19.757Z,30.47
2023-02-15T08:20:52.751Z,27.37
2023-02-15T08:23:19.847Z,26.67
2023-02-15T08:25:46.896Z,28.63
2023-02-15T08:28:13.994Z,34.70
2023-02-15T08:30:41.056Z,32.30
2023-02-15T08:33:08.355Z,39.20
2023-02-15T08:35:35.461Z,34.10
2023-02-15T08:38:02.523Z,34.33
2023-02-15T08:40:29.693Z,34.67
2023-02-15T08:42:56.764Z,34.53
2023-02-15T08:45:26.382Z,36.83
2023-02-15T08:47:54.421Z,34.80
2023-02-15T08:50:21.491Z,35.30
2023-02-15T08:52:48.632Z,31.80
2023-02-15T08:55:16.639Z,31.23
2023-02-15T08:57:46.452Z,34.73
2023-02-15T09:00:16.450Z,31.17
2023-02-15T09:02:43.528Z,33.97
2023-02-15T09:05:10.757Z,40.10
2023-02-15T09:07:37.798Z,32.77
2023-02-15T09:10:05.534Z,33.40
2023-02-15T09:12:32.556Z,33.67
2023-02-15T09:14:59.667Z,30.27
2023-02-15T09:17:26.693Z,34.70
2023-02-15T09:19:53.760Z,35.40
2023-02-15T09:22:21.237Z,35.57
2023-02-15T09:24:48.270Z,39.23
2023-02-15T09:27:15.497Z,32.23
2023-02-15T09:29:42.547Z,39.20
2023-02-15T09:32:09.562Z,35.17
2023-02-15T09:34:36.638Z,33.33
2023-02-15T09:37:03.883Z,35.80
2023-02-15T09:39:31.097Z,36.00
2023-02-15T09:42:44.663Z,30.37
2023-02-15T09:45:49.017Z,33.23
2023-02-15T09:48:50.203Z,32.70
2023-02-15T09:51:38.688Z,31.00
2023-02-15T09:54:26.202Z,28.90
2023-02-15T09:57:22.233Z,28.50
2023-02-15T10:00:10.902Z,28.67
2023-02-15T10:02:54.434Z,28.77
2023-02-15T10:05:52.095Z,29.00
2023-02-15T10:09:08.734Z,29.90
2023-02-15T10:11:42.053Z,31.87
2023-02-15T10:14:46.538Z,27.60
2023-02-15T10:17:37.862Z,30.00
2023-02-15T10:20:31.999Z,31.27
2023-02-15T10:23:10.712Z,31.70
2023-02-15T10:26:12.344Z,34.40
2023-02-15T10:28:52.325Z,35.33
2023-02-15T10:31:51.981Z,28.20
2023-02-15T10:34:40.857Z,32.03
2023-02-15T10:37:31.100Z,35.93
2023-02-15T10:40:08.822Z,33.53
2023-02-15T10:42:57.915Z,31.40
2023-02-15T10:45:55.794Z,31.30
2023-02-15T10:48:31.514Z,34.47
2023-02-15T10:51:03.313Z,30.83
2023-02-15T10:53:39.494Z,31.03
2023-02-15T10:56:37.355Z,33.87
2023-02-15T10:59:32.277Z,35.67
2023-02-15T11:02:18.912Z,29.50
2023-02-15T11:04:54.148Z,34.90
2023-02-15T11:07:46.084Z,33.37
2023-02-15T11:11:03.013Z,31.07
2023-02-15T11:13:38.872Z,27.60
2023-02-15T11:16:22.527Z,28.83
2023-02-15T11:19:20.463Z,30.20
2023-02-15T11:21:54.045Z,25.57
2023-02-15T11:24:22.704Z,32.00
2023-02-15T11:27:01.930Z,28.33
2023-02-15T11:29:54.355Z,23.00
2023-02-15T11:32:36.872Z,27.43
2023-02-15T11:35:12.937Z,30.27
2023-02-15T11:37:48.030Z,32.03
2023-02-15T11:40:29.443Z,29.27
2023-02-15T11:43:14.634Z,27.03
2023-02-15T11:45:45.773Z,27.70
2023-02-15T11:48:16.995Z,32.07
2023-02-15T11:50:45.988Z,30.57
2023-02-15T11:53:22.270Z,32.67
2023-02-15T11:55:52.072Z,36.70
2023-02-15T11:58:53.882Z,24.37
2023-02-15T12:01:34.013Z,27.60
2023-02-15T12:04:34.020Z,31.40
2023-02-15T12:07:23.582Z,27.63
2023-02-15T12:10:05.228Z,30.63
2023-02-15T12:12:36.140Z,30.37
2023-02-15T12:15:07.869Z,32.97
2023-02-15T12:17:56.068Z,30.27
2023-02-15T12:20:31.982Z,30.77
2023-02-15T12:23:12.056Z,31.73
2023-02-15T12:25:59.191Z,34.07
2023-02-15T12:28:39.683Z,26.80
2023-02-15T12:31:47.200Z,36.00
2023-02-15T12:34:24.514Z,31.33
2023-02-15T12:36:59.180Z,36.90
2023-02-15T12:39:32.571Z,34.50
2023-02-15T12:42:22.818Z,34.00
2023-02-15T12:45:20.204Z,33.17
2023-02-15T12:47:47.333Z,35.73
2023-02-15T12:50:34.586Z,36.40
2023-02-15T12:53:35.860Z,35.33
2023-02-15T12:56:07.089Z,38.77
2023-02-15T12:58:42.227Z,41.60
2023-02-15T13:01:26.706Z,41.00
2023-02-15T13:03:56.696Z,37.40
2023-02-15T13:06:24.039Z,40.43
2023-02-15T13:08:58.503Z,39.93
2023-02-15T13:11:38.881Z,42.27
2023-02-15T13:14:32.534Z,37.87
2023-02-15T13:17:04.100Z,38.73
2023-02-15T13:19:57.812Z,38.67
2023-02-15T13:22:43.321Z,38.40
2023-02-15T13:25:22.260Z,41.63
2023-02-15T13:27:58.560Z,41.43
2023-02-15T13:30:43.253Z,42.53
2023-02-15T13:33:29.668Z,45.67
2023-02-15T13:36:42.983Z,44.43
2023-02-15T13:39:34.618Z,40.63
2023-02-15T13:42:40.906Z,40.57
2023-02-15T13:45:39.617Z,38.77
2023-02-15T13:48:53.013Z,33.77
2023-02-15T13:51:40.114Z,33.27
2023-02-15T13:54:44.886Z,39.53
2023-02-15T13:57:36.231Z,40.93
2023-02-15T14:00:36.329Z,43.33
2023-02-15T14:03:18.258Z,40.50
2023-02-15T14:06:00.505Z,43.23
2023-02-15T14:09:07.611Z,47.73
2023-02-15T14:11:42.358Z,40.27
2023-02-15T14:14:25.058Z,47.00
2023-02-15T14:17:23.361Z,42.80
2023-02-15T14:20:03.086Z,41.87
2023-02-15T14:22:39.921Z,43.27
2023-02-15T14:25:41.479Z,44.50
2023-02-15T14:28:52.078Z,42.17
2023-02-15T14:31:24.497Z,43.43
2023-02-15T14:33:59.189Z,47.43
2023-02-15T14:36:31.231Z,48.90
2023-02-15T14:39:51.266Z,48.27
2023-02-15T14:42:42.074Z,48.83
2023-02-15T14:45:43.973Z,44.00
2023-02-15T14:48:25.298Z,45.97
2023-02-15T14:50:52.429Z,48.60
2023-02-15T14:53:32.057Z,53.30
2023-02-15T14:56:20.509Z,50.57
2023-02-15T14:58:53.630Z,52.53
2023-02-15T15:01:36.642Z,52.53
2023-02-15T15:04:15.498Z,53.77
2023-02-15T15:06:45.031Z,51.07
2023-02-15T15:09:29.289Z,51.83
2023-02-15T15:12:38.862Z,57.53
2023-02-15T15:15:07.837Z,52.53
2023-02-15T15:17:35.059Z,56.27
2023-02-15T15:20:08.400Z,55.60
2023-02-15T15:22:37.755Z,54.60
2023-02-15T15:25:34.785Z,55.27
2023-02-15T15:28:01.898Z,51.43
2023-02-15T15:30:31.615Z,49.30
2023-02-15T15:32:58.571Z,51.97
2023-02-15T15:35:53.781Z,62.33
2023-02-15T15:39:06.960Z,47.67
2023-02-15T15:42:02.916Z,52.07
2023-02-15T15:44:54.017Z,71.03
2023-02-15T15:48:07.152Z,61.13
2023-02-15T15:50:35.575Z,59.20
2023-02-15T15:53:04.390Z,53.60
2023-02-15T15:55:34.634Z,53.83
2023-02-15T15:58:07.182Z,48.23
2023-02-15T16:00:39.308Z,46.50
2023-02-15T16:03:07.046Z,44.07
2023-02-15T16:05:39.339Z,37.47
2023-02-15T16:08:07.054Z,40.23
2023-02-15T16:10:36.928Z,40.33
2023-02-15T16:13:05.795Z,44.37
2023-02-15T16:15:50.677Z,39.40
2023-02-15T16:18:23.054Z,42.57
2023-02-15T16:21:00.160Z,37.17
2023-02-15T16:23:36.384Z,40.07
2023-02-15T16:27:00.122Z,42.33
2023-02-15T16:29:32.549Z,46.13
2023-02-15T16:32:21.441Z,46.60
2023-02-15T16:35:03.833Z,46.03
2023-02-15T16:37:35.796Z,45.23
2023-02-15T16:40:03.527Z,50.03
2023-02-15T16:42:30.530Z,44.50
2023-02-15T16:45:10.148Z,47.97
2023-02-15T16:47:44.232Z,48.37
2023-02-15T16:50:38.246Z,50.40
2023-02-15T16:53:17.281Z,50.70
2023-02-15T16:55:48.963Z,47.60
2023-02-15T16:58:18.734Z,43.73
2023-02-15T17:00:46.675Z,49.43
2023-02-15T17:03:13.586Z,47.50
2023-02-15T17:05:51.155Z,41.97
2023-02-15T17:08:35.342Z,43.23
2023-02-15T17:11:22.442Z,45.30
2023-02-15T17:14:09.756Z,42.57
2023-02-15T17:17:01.887Z,46.33
2023-02-15T17:19:36.109Z,44.93
2023-02-15T17:22:08.132Z,42.33
2023-02-15T17:24:43.061Z,34.03
2023-02-15T17:27:25.770Z,31.53
2023-02-15T17:29:59.974Z,40.90
2023-02-15T17:32:31.342Z,34.57
2023-02-15T17:35:09.181Z,41.57
2023-02-15T17:37:38.858Z,42.87
2023-02-15T17:40:28.318Z,39.33
2023-02-15T17:42:55.554Z,44.93
2023-02-15T17:45:27.339Z,42.03
2023-02-15T17:47:54.705Z,40.50
2023-02-15T17:50:26.358Z,43.60
2023-02-15T17:52:56.464Z,42.03
2023-02-15T17:55:41.240Z,44.20
2023-02-15T17:58:19.494Z,41.47
2023-02-15T18:01:11.898Z,44.60
2023-02-15T18:04:04.761Z,45.03
2023-02-15T18:06:51.777Z,45.90
2023-02-15T18:09:40.784Z,48.73
2023-02-15T18:12:22.255Z,49.47
2023-02-15T18:14:50.859Z,48.00
2023-02-15T18:17:18.722Z,48.63
2023-02-15T18:19:47.233Z,45.60
2023-02-15T18:22:19.102Z,48.00
2023-02-15T18:24:48.782Z,40.80
2023-02-15T18:27:16.919Z,43.50
2023-02-15T18:29:44.086Z,42.70
2023-02-15T18:32:20.033Z,43.27
2023-02-15T18:34:49.518Z,43.43
2023-02-15T18:37:21.098Z,46.50
2023-02-15T18:39:57.428Z,42.70
2023-02-15T18:42:35.240Z,41.20
2023-02-15T18:45:18.706Z,44.97
2023-02-15T18:47:47.602Z,46.73
2023-02-15T18:50:17.001Z,42.63
2023-02-15T18:52:47.237Z,44.33
2023-02-15T18:55:23.095Z,46.87
2023-02-15T18:57:54.041Z,45.37
2023-02-15T19:00:33.888Z,45.80
2023-02-15T19:03:02.602Z,48.97
2023-02-15T19:05:31.959Z,42.27
2023-02-15T19:08:01.827Z,50.60
2023-02-15T19:10:31.464Z,44.43
2023-02-15T19:12:58.984Z,45.83
2023-02-15T19:15:30.584Z,47.73
2023-02-15T19:17:57.788Z,47.97
2023-02-15T19:20:45.582Z,49.80
2023-02-15T19:23:20.337Z,51.47
2023-02-15T19:25:49.741Z,54.97
2023-02-15T19:28:32.494Z,51.23
2023-02-15T19:30:59.769Z,52.53
2023-02-15T19:33:27.042Z,53.23
2023-02-15T19:35:57.647Z,51.17
2023-02-15T19:38:30.503Z,53.30
2023-02-15T19:41:07.535Z,52.43
2023-02-15T19:43:35.900Z,54.20
2023-02-15T19:46:03.335Z,47.40
2023-02-15T19:48:30.508Z,50.23
2023-02-15T19:50:58.977Z,57.33
2023-02-15T19:53:28.605Z,52.30
2023-02-15T19:55:55.778Z,55.77
2023-02-15T19:58:23.265Z,54.73
2023-02-15T20:00:51.770Z,55.63
2023-02-15T20:03:18.815Z,54.17
2023-02-15T20:05:46.970Z,53.10
2023-02-15T20:08:20.863Z,50.10
2023-02-15T20:10:48.650Z,57.93
2023-02-15T20:13:20.281Z,54.17
2023-02-15T20:15:49.157Z,50.70
2023-02-15T20:18:16.236Z,57.50
2023-02-15T20:20:49.445Z,55.03
2023-02-15T20:23:31.096Z,55.20
2023-02-15T20:26:01.091Z,56.37
2023-02-15T20:28:31.887Z,53.77
2023-02-15T20:30:59.638Z,52.87
2023-02-15T20:33:26.834Z,54.73
2023-02-15T20:35:54.044Z,60.83
2023-02-15T20:38:29.003Z,54.80
2023-02-15T20:41:17.658Z,53.03
2023-02-15T20:43:44.919Z,57.43
2023-02-15T20:46:11.990Z,53.50
2023-02-15T20:48:39.128Z,58.53
2023-02-15T20:51:14.482Z,54.30
2023-02-15T20:53:41.510Z,54.57
2023-02-15T20:56:22.327Z,53.77
2023-02-15T20:58:50.657Z,57.53
2023-02-15T21:01:21.494Z,57.33
2023-02-15T21:03:48.752Z,54.63
2023-02-15T21:06:19.172Z,55.00
2023-02-15T21:08:46.243Z,57.53
2023-02-15T21:11:23.819Z,57.13
2023-02-15T21:13:51.384Z,53.07
2023-02-15T21:16:18.574Z,54.40
2023-02-15T21:18:45.693Z,55.27
2023-02-15T21:21:23.593Z,62.07
2023-02-15T21:23:52.418Z,55.83
2023-02-15T21:26:22.805Z,60.30
2023-02-15T21:28:50.579Z,51.63
2023-02-15T21:31:25.187Z,55.20
2023-02-15T21:33:52.769Z,53.47
2023-02-15T21:36:24.206Z,57.60
2023-02-15T21:38:53.767Z,54.03
2023-02-15T21:41:42.814Z,56.57
2023-02-15T21:44:41.040Z,55.00
2023-02-15T21:47:44.666Z,57.63
2023-02-15T21:50:37.855Z,57.33
2023-02-15T21:53:07.307Z,56.83
2023-02-15T21:55:34.407Z,58.20
2023-02-15T21:58:02.451Z,59.23
2023-02-15T22:00:30.686Z,55.73
2023-02-15T22:03:00.960Z,55.70
2023-02-15T22:05:33.763Z,54.40
2023-02-15T22:08:01.232Z,55.47
2023-02-15T22:10:31.858Z,52.07
2023-02-15T22:13:02.925Z,56.43
2023-02-15T22:15:37.588Z,53.20
2023-02-15T22:18:05.977Z,57.83
2023-02-15T22:20:33.209Z,56.73
2023-02-15T22:23:00.253Z,61.23
2023-02-15T22:25:27.720Z,60.83
2023-02-15T22:27:55.701Z,55.63
2023-02-15T22:30:27.461Z,57.07
2023-02-15T22:32:56.998Z,57.37
2023-02-15T22:35:31.227Z,57.07
2023-02-15T22:37:59.018Z,53.80
2023-02-15T22:40:33.137Z,55.30
2023-02-15T22:43:03.139Z,56.07
2023-02-15T22:45:32.112Z,52.60
2023-02-15T22:48:00.701Z,60.47
2023-02-15T22:50:33.081Z,54.93
2023-02-15T22:53:04.030Z,53.63
2023-02-15T22:55:36.393Z,51.50
2023-02-15T22:58:04.311Z,54.47
2023-02-15T23:00:38.399Z,55.10
2023-02-15T23:03:17.014Z,59.40
2023-02-15T23:05:45.268Z,54.30
2023-02-15T23:08:12.652Z,52.77
2023-02-15T23:10:41.303Z,53.70
2023-02-15T23:13:31.272Z,56.20
2023-02-15T23:16:01.885Z,58.20
2023-02-15T23:18:31.539Z,53.80
2023-02-15T23:21:04.409Z,56.43
2023-02-15T23:23:38.193Z,57.23
2023-02-15T23:26:18.076Z,61.47
2023-02-15T23:28:46.433Z,62.60
2023-02-15T23:31:23.598Z,60.77
2023-02-15T23:33:51.636Z,56.23
2023-02-15T23:36:38.116Z,67.17
2023-02-15T23:39:37.853Z,57.80
2023-02-15T23:42:27.948Z,60.43
2023-02-15T23:44:55.422Z,66.53
2023-02-15T23:47:53.385Z,70.20
2023-02-15T23:50:27.196Z,68.13
2023-02-15T23:52:55.541Z,63.30
2023-02-15T23:55:25.240Z,65.83
2023-02-15T23:57:53.423Z,70.50
